Time;durP1;ratioP1;P1;durP2;ratioP2;P2;SDS_P1;SDS_P2;PMS_P1;PMS_P2;Temp;Humidity;BMP_temperature;BMP_pressure;BME280_temperature;BME280_humidity;BME280_pressure;Samples;Min_cycle;Max_cycle;Signal;HPM_P1;HPM_P2
2023/09/03 00:00:52;;;;;;;3.83;2.37;;;;;;;14.92;100.00;98295.66;6173466;28;20458;-48
2023/09/03 00:03:55;;;;;;;2.33;2.13;;;;;;;14.95;100.00;98297.06;6175549;28;20237;-51
2023/09/03 00:06:57;;;;;;;2.57;2.20;;;;;;;15.00;100.00;98296.28;6173595;28;20229;-51
2023/09/03 00:10:00;;;;;;;2.90;2.30;;;;;;;15.04;100.00;98294.72;6175553;28;20232;-49
2023/09/03 00:13:03;;;;;;;2.77;2.53;;;;;;;15.09;100.00;98292.88;6174094;28;20656;-48
2023/09/03 00:16:06;;;;;;;4.77;2.53;;;;;;;15.12;100.00;98291.56;6171849;28;20234;-48
2023/09/03 00:19:08;;;;;;;3.50;2.50;;;;;;;15.19;100.00;98301.03;6174850;28;20221;-49
2023/09/03 00:22:11;;;;;;;3.30;2.90;;;;;;;15.23;100.00;98299.44;6170903;28;20229;-48
2023/09/03 00:25:13;;;;;;;2.73;2.43;;;;;;;15.27;100.00;98298.91;6171663;28;20838;-49
2023/09/03 00:28:15;;;;;;;2.87;2.33;;;;;;;15.22;100.00;98292.47;6175006;28;20225;-50
2023/09/03 00:31:18;;;;;;;6.50;3.07;;;;;;;15.34;100.00;98305.69;6173963;28;20225;-50
2023/09/03 00:34:20;;;;;;;4.23;2.60;;;;;;;15.36;100.00;98298.19;6174854;28;20767;-51
2023/09/03 00:37:22;;;;;;;3.10;2.60;;;;;;;15.38;100.00;98309.50;6175322;28;20366;-51
2023/09/03 00:40:25;;;;;;;3.40;2.10;;;;;;;15.43;100.00;98304.16;6173452;28;20793;-51
2023/09/03 00:43:27;;;;;;;3.40;2.50;;;;;;;15.42;100.00;98297.19;6175981;28;20232;-50
2023/09/03 00:46:30;;;;;;;3.97;2.80;;;;;;;15.56;100.00;98310.13;6177328;28;20248;-49
2023/09/03 00:49:32;;;;;;;2.20;2.00;;;;;;;15.72;100.00;98307.34;6176305;28;20752;-52
2023/09/03 00:52:35;;;;;;;3.73;2.30;;;;;;;16.10;100.00;98312.63;6175804;28;20236;-50
2023/09/03 00:55:38;;;;;;;5.50;2.33;;;;;;;16.54;100.00;98313.06;6176127;28;20239;-51
2023/09/03 00:58:40;;;;;;;3.80;2.33;;;;;;;16.72;100.00;98317.19;6175654;28;20229;-49
2023/09/03 01:01:43;;;;;;;3.73;2.10;;;;;;;17.13;100.00;98309.97;6181874;28;20241;-49
2023/09/03 01:04:46;;;;;;;2.30;1.90;;;;;;;17.26;100.00;98298.66;6178683;28;20260;-48
2023/09/03 01:07:49;;;;;;;4.37;2.37;;;;;;;17.46;98.02;98297.84;6179298;28;20280;-50
2023/09/03 01:11:00;;;;;;;2.97;2.10;;;;;;;17.58;97.76;98323.69;6174213;28;20229;-48
2023/09/03 01:14:24;;;;;;;2.40;2.00;;;;;;;17.51;98.41;98318.59;6170864;28;20797;-48
2023/09/03 01:17:51;;;;;;;2.90;2.30;;;;;;;17.58;97.38;98313.72;6169510;28;20321;-49
2023/09/03 01:21:22;;;;;;;3.03;2.13;;;;;;;17.53;97.94;98319.09;6154120;28;20702;-50
2023/09/03 01:24:56;;;;;;;3.57;2.47;;;;;;;17.50;98.02;98323.16;6173835;28;20686;-50
2023/09/03 01:28:10;;;;;;;2.97;1.90;;;;;;;17.48;98.11;98325.31;6173153;28;20263;-49
2023/09/03 01:31:16;;;;;;;2.13;1.93;;;;;;;17.46;98.72;98316.69;6141718;28;20232;-49
2023/09/03 01:34:20;;;;;;;3.47;2.33;;;;;;;17.38;99.29;98322.63;6174078;28;20302;-50
2023/09/03 01:37:22;;;;;;;2.53;2.30;;;;;;;17.34;99.26;98324.25;6173798;28;20241;-48
2023/09/03 01:40:24;;;;;;;2.50;2.23;;;;;;;17.28;99.72;98320.72;6172260;28;20325;-51
2023/09/03 01:43:27;;;;;;;2.30;2.07;;;;;;;17.22;100.00;98318.31;6172955;28;20302;-51
2023/09/03 01:46:50;;;;;;;2.80;1.80;;;;;;;17.17;100.00;98315.63;6156751;28;20246;-49
2023/09/03 01:50:08;;;;;;;3.03;2.17;;;;;;;17.07;100.00;98327.19;6168206;28;20300;-50
2023/09/03 01:53:37;;;;;;;3.57;2.17;;;;;;;16.98;100.00;98321.53;6169724;28;20217;-51
2023/09/03 01:56:45;;;;;;;3.07;2.40;;;;;;;16.91;100.00;98329.06;6165075;28;20244;-49
2023/09/03 01:59:53;;;;;;;2.23;2.03;;;;;;;16.86;100.00;98336.31;6158504;28;20236;-49
2023/09/03 02:02:56;;;;;;;2.80;2.37;;;;;;;16.76;100.00;98337.91;6159140;28;20237;-49
2023/09/03 02:05:58;;;;;;;2.33;1.87;;;;;;;16.66;100.00;98337.84;6174308;28;20245;-50
2023/09/03 02:09:01;;;;;;;1.90;1.80;;;;;;;16.38;100.00;98306.03;6169015;28;20225;-49
2023/09/03 02:12:06;;;;;;;2.60;1.97;;;;;;;16.56;100.00;98343.22;6169314;28;20295;-49
2023/09/03 02:15:08;;;;;;;2.50;1.73;;;;;;;16.50;100.00;98341.56;6173256;28;20214;-51
2023/09/03 02:18:11;;;;;;;1.93;1.80;;;;;;;16.43;100.00;98346.38;6175486;28;20296;-51
2023/09/03 02:21:13;;;;;;;2.30;2.10;;;;;;;16.34;100.00;98351.44;6176511;28;20700;-49
2023/09/03 02:24:15;;;;;;;3.07;1.90;;;;;;;16.29;100.00;98351.44;6177519;28;20300;-49
2023/09/03 02:27:17;;;;;;;3.60;1.87;;;;;;;16.20;100.00;98350.31;6174767;28;20308;-50
2023/09/03 02:30:20;;;;;;;2.10;1.90;;;;;;;16.12;100.00;98354.31;6174949;28;20233;-51
2023/09/03 02:33:23;;;;;;;2.30;1.90;;;;;;;16.07;100.00;98358.84;6175561;28;20278;-48
2023/09/03 02:36:25;;;;;;;3.23;1.83;;;;;;;16.04;100.00;98352.13;6187696;28;20230;-52
2023/09/03 02:39:27;;;;;;;2.30;1.70;;;;;;;16.00;100.00;98364.44;6177244;28;20313;-52
2023/09/03 02:42:30;;;;;;;1.87;1.77;;;;;;;15.97;100.00;98364.97;6157095;28;20229;-49
2023/09/03 02:45:32;;;;;;;1.80;1.70;;;;;;;15.92;100.00;98359.59;6159047;28;20237;-52
2023/09/03 02:48:34;;;;;;;1.70;1.60;;;;;;;15.87;100.00;98360.34;6157910;28;20848;-49
2023/09/03 02:51:39;;;;;;;3.70;2.00;;;;;;;15.82;100.00;98368.38;6163950;28;20226;-52
2023/09/03 02:54:41;;;;;;;3.60;2.20;;;;;;;15.68;100.00;98361.84;6221428;28;20726;-53
2023/09/03 02:57:44;;;;;;;2.63;2.23;;;;;;;15.62;100.00;98365.53;6156283;28;20241;-50
2023/09/03 03:00:46;;;;;;;3.70;2.13;;;;;;;15.58;100.00;98372.47;6173105;28;20226;-52
2023/09/03 03:03:48;;;;;;;1.73;1.63;;;;;;;15.46;100.00;98378.00;6154904;28;20336;-50
2023/09/03 03:06:50;;;;;;;1.83;1.60;;;;;;;15.44;100.00;98374.78;6221895;28;20379;-51
2023/09/03 03:09:53;;;;;;;2.93;1.83;;;;;;;15.41;100.00;98372.59;6149152;28;20283;-47
2023/09/03 03:12:55;;;;;;;1.93;1.70;;;;;;;15.39;100.00;98375.53;6223326;28;20886;-50
2023/09/03 03:16:03;;;;;;;1.70;1.57;;;;;;;15.36;100.00;98373.34;6155097;28;20274;-49
2023/09/03 03:19:07;;;;;;;4.00;1.97;;;;;;;15.28;100.00;98365.78;6178963;28;20633;-50
2023/09/03 03:22:12;;;;;;;4.50;2.20;;;;;;;15.24;100.00;98375.41;6174201;28;20261;-50
2023/09/03 03:25:15;;;;;;;2.27;2.07;;;;;;;15.17;100.00;98383.69;6163113;28;20704;-49
2023/09/03 03:28:17;;;;;;;3.47;2.27;;;;;;;15.11;100.00;98381.19;6235133;28;20237;-51
2023/09/03 03:31:20;;;;;;;2.80;2.43;;;;;;;15.09;100.00;98386.81;6167402;28;20358;-51
2023/09/03 03:34:25;;;;;;;3.40;2.00;;;;;;;15.09;100.00;98388.69;6239701;28;20238;-51
2023/09/03 03:37:31;;;;;;;7.83;2.53;;;;;;;14.97;100.00;98370.03;6237632;28;20686;-50
2023/09/03 03:40:34;;;;;;;2.87;2.17;;;;;;;15.12;100.00;98380.94;6176394;28;20221;-49
2023/09/03 03:43:37;;;;;;;2.90;2.30;;;;;;;15.14;100.00;98384.19;6185892;28;20258;-50
2023/09/03 03:46:40;;;;;;;2.50;2.20;;;;;;;15.15;100.00;98374.25;6159154;28;20263;-49
2023/09/03 03:49:43;;;;;;;2.87;2.17;;;;;;;15.15;100.00;98380.41;6163342;28;20233;-51
2023/09/03 03:52:45;;;;;;;7.07;2.70;;;;;;;15.14;100.00;98389.53;6159217;28;20244;-51
2023/09/03 03:55:59;;;;;;;2.70;2.10;;;;;;;15.12;100.00;98382.78;6175080;28;20281;-52
2023/09/03 03:59:01;;;;;;;4.77;2.57;;;;;;;15.06;100.00;98389.19;6179139;28;20221;-48
2023/09/03 04:02:04;;;;;;;3.00;2.00;;;;;;;14.98;100.00;98389.66;6175766;28;20265;-48
2023/09/03 04:05:06;;;;;;;2.00;1.90;;;;;;;14.95;100.00;98401.69;6173750;28;20232;-48
2023/09/03 04:08:09;;;;;;;3.00;1.97;;;;;;;15.01;100.00;98399.88;6173757;28;20531;-49
2023/09/03 04:11:13;;;;;;;3.30;2.40;;;;;;;15.01;100.00;98413.28;6172021;28;20641;-49
2023/09/03 04:14:15;;;;;;;3.30;2.20;;;;;;;15.00;100.00;98417.84;6158469;28;20727;-47
2023/09/03 04:17:18;;;;;;;3.20;2.20;;;;;;;14.94;100.00;98406.25;6153779;28;20236;-49
2023/09/03 04:20:20;;;;;;;2.30;2.10;;;;;;;15.02;100.00;98421.06;6157762;28;20897;-46
2023/09/03 04:23:23;;;;;;;2.10;1.90;;;;;;;15.02;100.00;98417.56;6173194;28;20251;-50
2023/09/03 04:26:26;;;;;;;2.20;2.00;;;;;;;15.04;100.00;98416.28;6161935;28;20228;-48
2023/09/03 04:29:30;;;;;;;2.47;1.83;;;;;;;15.08;100.00;98420.09;6179431;28;20225;-52
2023/09/03 04:32:33;;;;;;;2.63;1.97;;;;;;;15.13;100.00;98411.28;6173647;28;20229;-50
2023/09/03 04:35:36;;;;;;;3.97;1.97;;;;;;;15.17;100.00;98420.41;6165000;28;20245;-48
2023/09/03 04:38:39;;;;;;;2.30;1.77;;;;;;;15.20;100.00;98423.41;6241892;28;20224;-50
2023/09/03 04:41:41;;;;;;;2.73;2.07;;;;;;;15.25;100.00;98422.66;6175737;28;20225;-51
2023/09/03 04:44:44;;;;;;;2.57;2.30;;;;;;;15.28;100.00;98434.78;6177990;28;20237;-52
2023/09/03 04:47:46;;;;;;;3.30;2.30;;;;;;;15.31;100.00;98431.56;6157788;28;20240;-50
2023/09/03 04:50:49;;;;;;;3.07;1.97;;;;;;;15.34;100.00;98439.94;6172088;28;20710;-50
2023/09/03 04:53:51;;;;;;;2.53;2.30;;;;;;;15.37;100.00;98460.06;6151427;28;20237;-52
2023/09/03 04:56:55;;;;;;;2.10;2.00;;;;;;;15.37;100.00;98447.50;6157483;28;20242;-50
2023/09/03 04:59:57;;;;;;;2.30;2.10;;;;;;;15.41;100.00;98451.25;6180794;28;20217;-52
2023/09/03 05:03:01;;;;;;;2.07;1.87;;;;;;;15.43;100.00;98442.97;6157858;28;20221;-51
2023/09/03 05:06:03;;;;;;;2.50;2.30;;;;;;;15.45;100.00;98430.91;6172420;28;20699;-49
2023/09/03 05:09:06;;;;;;;2.50;2.30;;;;;;;15.46;100.00;98447.81;6174155;28;20221;-47
2023/09/03 05:12:08;;;;;;;2.37;2.17;;;;;;;15.47;100.00;98444.09;6173584;28;20213;-49
2023/09/03 05:15:12;;;;;;;2.33;1.97;;;;;;;15.41;100.00;98437.84;6176579;28;20213;-50
2023/09/03 05:18:15;;;;;;;2.90;2.50;;;;;;;15.48;100.00;98435.78;6154541;28;20212;-49
2023/09/03 05:21:17;;;;;;;3.20;2.00;;;;;;;15.52;100.00;98437.94;6171064;28;20235;-51
2023/09/03 05:24:19;;;;;;;2.47;2.20;;;;;;;15.55;100.00;98446.28;6171402;28;20595;-47
2023/09/03 05:27:22;;;;;;;2.43;2.20;;;;;;;15.61;100.00;98444.47;6172922;28;20233;-48
2023/09/03 05:30:26;;;;;;;2.20;2.00;;;;;;;15.64;100.00;98449.38;6167548;28;20237;-49
2023/09/03 05:33:29;;;;;;;2.10;1.90;;;;;;;15.66;100.00;98452.59;6156918;28;20225;-52
2023/09/03 05:36:32;;;;;;;2.27;2.07;;;;;;;15.70;100.00;98449.13;6170981;28;20924;-52
2023/09/03 05:39:35;;;;;;;2.13;1.90;;;;;;;15.74;100.00;98455.63;6156395;28;20236;-51
2023/09/03 05:42:37;;;;;;;3.70;2.43;;;;;;;15.77;100.00;98466.94;6164408;28;20745;-49
2023/09/03 05:45:44;;;;;;;2.33;2.13;;;;;;;15.82;100.00;98465.09;6155566;28;20241;-52
2023/09/03 05:48:50;;;;;;;4.33;2.40;;;;;;;15.74;100.00;98447.56;6157886;28;20251;-48
2023/09/03 05:51:53;;;;;;;2.60;2.10;;;;;;;15.92;100.00;98465.19;6186726;28;21256;-48
2023/09/03 05:54:55;;;;;;;2.47;2.20;;;;;;;15.98;100.00;98471.41;6175993;28;20233;-49
2023/09/03 05:57:58;;;;;;;1.80;1.70;;;;;;;16.02;100.00;98471.72;6176249;28;20225;-52
2023/09/03 06:01:06;;;;;;;1.80;1.70;;;;;;;16.08;100.00;98474.16;6175733;28;20631;-50
2023/09/03 06:04:13;;;;;;;2.13;1.93;;;;;;;16.12;100.00;98480.66;6160949;28;20229;-52
2023/09/03 06:07:16;;;;;;;1.83;1.73;;;;;;;16.19;100.00;98467.78;6161955;28;20733;-51
2023/09/03 06:10:19;;;;;;;2.10;1.90;;;;;;;16.25;100.00;98469.47;6178284;28;20333;-51
2023/09/03 06:13:21;;;;;;;1.90;1.77;;;;;;;16.32;100.00;98481.88;6177385;28;21045;-50
2023/09/03 06:16:23;;;;;;;2.37;2.17;;;;;;;16.37;100.00;98476.53;6175732;28;20798;-49
2023/09/03 06:19:26;;;;;;;2.23;2.00;;;;;;;16.43;100.00;98483.53;6177570;28;20240;-52
2023/09/03 06:22:28;;;;;;;2.40;1.80;;;;;;;16.30;100.00;98449.03;6177437;28;20225;-49
2023/09/03 06:25:30;;;;;;;2.97;1.90;;;;;;;16.55;100.00;98486.84;6178010;28;20366;-52
2023/09/03 06:28:33;;;;;;;1.97;1.87;;;;;;;16.56;100.00;98485.78;6160958;28;20240;-51
2023/09/03 06:31:35;;;;;;;1.80;1.70;;;;;;;16.69;100.00;98493.34;6176697;28;20639;-51
2023/09/03 06:34:37;;;;;;;1.90;1.80;;;;;;;16.66;100.00;98463.50;6177820;28;20233;-50
2023/09/03 06:37:39;;;;;;;2.03;1.63;;;;;;;16.83;100.00;98482.16;6179035;28;20249;-51
2023/09/03 06:40:42;;;;;;;2.70;2.10;;;;;;;16.85;100.00;98480.84;6177071;28;20251;-51
2023/09/03 06:43:44;;;;;;;2.27;1.87;;;;;;;16.91;100.00;98476.28;6177737;28;20245;-47
2023/09/03 06:46:46;;;;;;;2.10;1.90;;;;;;;16.96;100.00;98481.69;6176052;28;20313;-46
2023/09/03 06:49:50;;;;;;;3.37;2.40;;;;;;;17.11;100.00;98486.31;6176687;28;20252;-53
2023/09/03 06:52:52;;;;;;;2.47;1.90;;;;;;;17.25;100.00;98488.25;6178650;28;20327;-50
2023/09/03 06:55:56;;;;;;;2.80;2.30;;;;;;;17.40;100.00;98483.97;6177391;28;20327;-50
2023/09/03 06:58:58;;;;;;;2.40;2.20;;;;;;;17.59;100.00;98487.78;6190060;28;20706;-50
2023/09/03 07:02:01;;;;;;;2.37;1.90;;;;;;;17.76;100.00;98498.34;6178021;28;20258;-52
2023/09/03 07:05:04;;;;;;;2.60;2.40;;;;;;;17.88;98.22;98504.28;6174891;28;20281;-51
2023/09/03 07:08:06;;;;;;;2.47;2.27;;;;;;;18.01;96.74;98502.94;6177837;28;20240;-51
2023/09/03 07:11:09;;;;;;;2.50;2.30;;;;;;;18.07;96.38;98498.34;6178171;28;20241;-52
2023/09/03 07:14:11;;;;;;;6.40;2.50;;;;;;;18.05;96.81;98507.50;6169360;28;20228;-50
2023/09/03 07:17:13;;;;;;;2.43;2.23;;;;;;;18.11;96.05;98502.13;6175991;28;20221;-50
2023/09/03 07:20:16;;;;;;;3.13;2.30;;;;;;;18.08;96.77;98503.47;6178478;28;20232;-48
2023/09/03 07:23:18;;;;;;;3.63;2.10;;;;;;;18.08;95.74;98508.88;6176288;28;20231;-50
2023/09/03 07:26:20;;;;;;;3.00;2.27;;;;;;;18.11;95.57;98507.50;6177875;28;20225;-50
2023/09/03 07:29:22;;;;;;;3.43;2.30;;;;;;;18.13;95.71;98511.56;6176869;28;20293;-52
2023/09/03 07:32:24;;;;;;;1.93;1.83;;;;;;;18.16;94.99;98515.59;6176435;28;20320;-49
2023/09/03 07:35:30;;;;;;;2.87;2.20;;;;;;;18.20;94.11;98522.06;6175076;28;20226;-50
2023/09/03 07:38:32;;;;;;;2.77;2.30;;;;;;;18.21;93.43;98527.19;6177042;28;20685;-49
2023/09/03 07:41:36;;;;;;;4.37;2.80;;;;;;;18.17;93.41;98522.59;6174345;28;20799;-49
2023/09/03 07:44:39;;;;;;;2.47;1.97;;;;;;;18.23;95.01;98543.13;6176920;28;20233;-51
2023/09/03 07:47:41;;;;;;;2.57;2.20;;;;;;;18.26;94.88;98542.56;6159025;28;20327;-49
2023/09/03 07:50:44;;;;;;;3.13;2.50;;;;;;;18.31;93.59;98547.94;6177460;28;20237;-51
2023/09/03 07:53:49;;;;;;;2.50;2.20;;;;;;;18.41;93.12;98550.66;6176490;28;20248;-52
2023/09/03 07:56:54;;;;;;;2.33;2.03;;;;;;;18.38;93.54;98559.31;6175766;28;20233;-52
2023/09/03 07:59:56;;;;;;;2.50;2.27;;;;;;;18.38;93.86;98555.78;6177238;28;20232;-51
2023/09/03 08:02:58;;;;;;;2.20;1.87;;;;;;;18.41;93.56;98552.53;6178416;28;20248;-52
2023/09/03 08:06:02;;;;;;;2.27;2.03;;;;;;;18.36;94.84;98544.44;6175411;28;20237;-50
2023/09/03 08:09:05;;;;;;;2.37;2.03;;;;;;;18.46;93.54;98557.94;6178046;28;20705;-52
2023/09/03 08:12:08;;;;;;;2.57;2.13;;;;;;;18.49;93.72;98563.59;6176488;28;20221;-52
2023/09/03 08:15:11;;;;;;;2.80;2.20;;;;;;;18.51;93.94;98564.13;6156833;28;20264;-52
2023/09/03 08:18:14;;;;;;;2.97;2.20;;;;;;;18.53;94.17;98564.69;6175178;28;20209;-50
2023/09/03 08:21:17;;;;;;;2.40;2.10;;;;;;;18.59;92.97;98578.97;6172454;28;20304;-52
2023/09/03 08:24:19;;;;;;;1.70;1.60;;;;;;;18.64;93.38;98584.34;6174999;28;20583;-49
2023/09/03 08:27:21;;;;;;;2.80;2.13;;;;;;;18.68;92.04;98582.78;6174794;28;20244;-51
2023/09/03 08:30:23;;;;;;;3.00;2.00;;;;;;;18.75;91.90;98579.78;6172836;28;20233;-51
2023/09/03 08:33:26;;;;;;;2.23;2.00;;;;;;;18.78;91.14;98577.34;6176218;28;20340;-50
2023/09/03 08:36:28;;;;;;;2.37;2.07;;;;;;;18.80;90.39;98583.28;6176731;28;20267;-51
2023/09/03 08:39:30;;;;;;;2.17;1.83;;;;;;;18.81;90.77;98575.97;6177578;28;20603;-51
2023/09/03 08:42:33;;;;;;;2.57;2.00;;;;;;;18.67;90.50;98547.91;6173377;28;20259;-51
2023/09/03 08:45:43;;;;;;;1.87;1.70;;;;;;;18.87;90.41;98580.31;6159348;28;20233;-52
2023/09/03 08:48:47;;;;;;;1.93;1.83;;;;;;;18.87;88.85;98591.13;6177585;28;20230;-48
2023/09/03 08:51:52;;;;;;;3.03;1.90;;;;;;;18.89;87.93;98597.03;6174673;28;20279;-49
2023/09/03 08:54:56;;;;;;;3.03;1.90;;;;;;;18.73;87.22;98563.88;6181626;28;20698;-54
2023/09/03 08:57:59;;;;;;;2.13;1.93;;;;;;;18.91;86.54;98586.75;6178652;28;20719;-54
2023/09/03 09:01:02;;;;;;;2.10;1.90;;;;;;;18.98;86.08;98589.19;6175624;28;20252;-56
2023/09/03 09:04:05;;;;;;;2.03;1.83;;;;;;;19.08;86.90;98589.16;6176093;28;20229;-55
2023/09/03 09:07:09;;;;;;;2.23;2.03;;;;;;;19.15;84.40;98589.66;6175691;28;20240;-56
2023/09/03 09:10:16;;;;;;;2.80;1.90;;;;;;;19.02;85.01;98565.97;6175630;28;20294;-56
2023/09/03 09:13:23;;;;;;;1.53;1.43;;;;;;;19.17;84.89;98601.03;6176010;28;20237;-57
2023/09/03 09:16:26;;;;;;;3.87;2.00;;;;;;;19.11;85.27;98596.69;6157504;28;20781;-56
2023/09/03 09:19:28;;;;;;;1.87;1.77;;;;;;;19.10;85.71;98595.09;6174363;28;20233;-56
2023/09/03 09:22:30;;;;;;;2.30;2.00;;;;;;;19.03;86.34;98583.78;6174419;28;21113;-56
2023/09/03 09:25:33;;;;;;;1.80;1.63;;;;;;;19.08;86.76;98592.66;6175546;28;20432;-54
2023/09/03 09:28:35;;;;;;;2.63;2.00;;;;;;;19.01;87.52;98594.88;6176029;28;20233;-56
2023/09/03 09:31:37;;;;;;;2.03;1.90;;;;;;;18.93;86.90;98589.22;6175459;28;20236;-55
2023/09/03 09:34:43;;;;;;;2.67;2.23;;;;;;;18.81;86.76;98574.09;6175774;28;20233;-54
2023/09/03 09:37:45;;;;;;;3.87;2.17;;;;;;;19.02;86.75;98609.16;6174971;28;20614;-55
2023/09/03 09:40:47;;;;;;;2.50;2.30;;;;;;;19.04;87.19;98598.91;6175894;28;20239;-55
2023/09/03 09:43:51;;;;;;;3.47;3.17;;;;;;;19.11;86.63;98612.91;6175235;28;20236;-57
2023/09/03 09:46:53;;;;;;;2.87;2.67;;;;;;;19.20;86.31;98613.16;6171969;28;20722;-56
2023/09/03 09:49:56;;;;;;;2.87;2.60;;;;;;;19.30;84.29;98616.63;6175007;28;20237;-56
2023/09/03 09:52:58;;;;;;;2.57;2.37;;;;;;;19.34;82.52;98623.09;6158694;28;20752;-56
2023/09/03 09:56:03;;;;;;;3.20;2.47;;;;;;;19.30;80.87;98599.63;6175158;28;20370;-57
2023/09/03 09:59:10;;;;;;;2.70;2.43;;;;;;;19.38;81.39;98612.56;6175721;28;20291;-55
2023/09/03 10:02:14;;;;;;;3.07;2.77;;;;;;;19.43;81.64;98609.03;6173732;28;20248;-55
2023/09/03 10:05:16;;;;;;;3.07;2.73;;;;;;;19.50;80.68;98606.81;6175964;28;20725;-56
2023/09/03 10:08:19;;;;;;;2.87;2.57;;;;;;;19.55;81.61;98594.09;6174452;28;20290;-53
2023/09/03 10:11:21;;;;;;;3.67;3.10;;;;;;;19.63;80.37;98595.44;6171550;28;20221;-57
2023/09/03 10:14:25;;;;;;;3.10;2.80;;;;;;;19.68;80.61;98594.63;6174973;28;20233;-56
2023/09/03 10:17:28;;;;;;;4.27;2.77;;;;;;;19.74;80.18;98594.31;6170547;28;20237;-56
2023/09/03 10:20:31;;;;;;;4.60;2.93;;;;;;;19.78;80.88;98575.63;6174497;28;20355;-56
2023/09/03 10:23:40;;;;;;;4.57;2.63;;;;;;;19.96;79.57;98583.09;6174745;28;20305;-56
2023/09/03 10:26:48;;;;;;;3.13;2.83;;;;;;;20.07;77.87;98586.53;6172198;28;20230;-56
2023/09/03 10:29:52;;;;;;;2.20;2.07;;;;;;;20.12;77.78;98574.88;6178570;28;20237;-56
2023/09/03 10:32:55;;;;;;;2.77;2.40;;;;;;;20.17;76.80;98562.13;6181244;28;20224;-56
2023/09/03 10:36:18;;;;;;;2.73;2.53;;;;;;;20.03;78.08;98550.31;6178200;28;20247;-56
2023/09/03 10:39:22;;;;;;;4.13;2.90;;;;;;;20.10;75.88;98554.34;6176675;28;20239;-54
2023/09/03 10:42:24;;;;;;;3.47;2.90;;;;;;;20.22;75.83;98558.56;6175878;28;20292;-56
2023/09/03 10:45:26;;;;;;;2.50;2.30;;;;;;;20.23;74.83;98560.97;6179049;28;20258;-55
2023/09/03 10:48:29;;;;;;;4.80;2.50;;;;;;;20.30;73.26;98574.19;6178947;28;20229;-56
2023/09/03 10:51:32;;;;;;;2.80;2.60;;;;;;;20.33;74.86;98574.41;6178101;28;20316;-55
2023/09/03 10:54:35;;;;;;;2.37;2.17;;;;;;;20.33;70.73;98577.13;6177954;28;20237;-56
2023/09/03 10:57:37;;;;;;;1.90;1.80;;;;;;;20.39;72.58;98572.47;6178370;28;20815;-56
2023/09/03 11:01:22;;;;;;;2.30;1.53;;;;;;;20.47;68.06;98579.22;6179336;28;20741;-57
2023/09/03 11:04:25;;;;;;;2.77;1.50;;;;;;;20.50;66.93;98586.78;6177722;28;20383;-57
2023/09/03 11:07:27;;;;;;;2.50;2.07;;;;;;;20.57;69.81;98590.75;6178619;28;20237;-56
2023/09/03 11:10:30;;;;;;;1.80;1.60;;;;;;;20.72;70.21;98600.66;6178397;28;20286;-56
2023/09/03 11:13:33;;;;;;;2.03;1.50;;;;;;;20.79;65.80;98595.72;6178316;28;20244;-56
2023/09/03 11:16:40;;;;;;;1.50;1.40;;;;;;;20.87;65.30;98588.84;6173380;28;20244;-56
2023/09/03 11:19:43;;;;;;;1.40;1.30;;;;;;;20.83;64.80;98587.81;6178445;28;20282;-56
2023/09/03 11:22:46;;;;;;;1.70;1.60;;;;;;;20.91;63.21;98600.75;6177070;28;20229;-57
2023/09/03 11:25:48;;;;;;;1.93;1.30;;;;;;;20.99;66.08;98602.81;6178569;28;20229;-57
2023/09/03 11:28:52;;;;;;;1.37;1.27;;;;;;;21.08;65.33;98602.97;6178059;28;20232;-57
2023/09/03 11:31:55;;;;;;;2.63;2.00;;;;;;;21.10;65.91;98592.69;6174713;28;20230;-58
2023/09/03 11:35:01;;;;;;;1.50;1.40;;;;;;;21.08;64.24;98595.69;6178670;28;20604;-55
2023/09/03 11:38:04;;;;;;;3.40;1.70;;;;;;;21.16;65.37;98596.94;6177986;28;20271;-57
2023/09/03 11:41:07;;;;;;;2.17;1.50;;;;;;;21.18;64.19;98585.81;6178101;28;20229;-56
2023/09/03 11:44:18;;;;;;;1.63;1.53;;;;;;;21.23;66.27;98572.19;6177090;28;20229;-55
2023/09/03 11:47:21;;;;;;;1.60;1.50;;;;;;;21.31;65.49;98588.66;6177272;28;20229;-56
2023/09/03 11:50:24;;;;;;;2.50;1.67;;;;;;;21.37;64.50;98587.50;6177410;28;20632;-57
2023/09/03 11:53:39;;;;;;;2.20;2.00;;;;;;;21.38;63.46;98585.63;6183592;28;20533;-56
2023/09/03 11:56:41;;;;;;;1.80;1.70;;;;;;;21.26;64.68;98577.84;6161118;28;20233;-56
2023/09/03 11:59:45;;;;;;;2.33;2.00;;;;;;;21.26;63.83;98574.34;6176298;28;20315;-55
2023/09/03 12:02:49;;;;;;;3.37;1.90;;;;;;;21.26;64.35;98571.63;6175162;28;20870;-54
2023/09/03 12:05:52;;;;;;;2.13;1.80;;;;;;;21.36;65.40;98583.19;6177329;28;20269;-55
2023/09/03 12:08:56;;;;;;;2.27;1.67;;;;;;;21.46;65.32;98571.41;6176846;28;20236;-57
2023/09/03 12:11:59;;;;;;;1.97;1.80;;;;;;;21.60;63.28;98579.63;6175994;28;20241;-56
2023/09/03 12:15:15;;;;;;;2.33;1.97;;;;;;;21.63;61.96;98584.47;6174973;28;20229;-58
2023/09/03 12:18:17;;;;;;;3.27;1.90;;;;;;;21.56;61.93;98584.03;6173982;28;20225;-57
2023/09/03 12:21:29;;;;;;;1.83;1.73;;;;;;;21.55;61.20;98580.50;6177032;28;20228;-56
2023/09/03 12:24:32;;;;;;;1.90;1.80;;;;;;;21.60;61.07;98591.28;6174036;28;20229;-57
2023/09/03 12:27:48;;;;;;;2.13;1.70;;;;;;;21.55;60.87;98594.06;6174153;28;21799;-58
2023/09/03 12:31:04;;;;;;;2.40;1.70;;;;;;;21.55;61.10;98588.63;6171974;28;20230;-56
2023/09/03 12:34:08;;;;;;;1.80;1.60;;;;;;;21.34;62.45;98558.28;6171074;28;20230;-57
2023/09/03 12:37:11;;;;;;;1.80;1.63;;;;;;;21.54;62.17;98583.50;6173729;28;20245;-58
2023/09/03 12:40:15;;;;;;;1.40;1.30;;;;;;;21.56;60.94;98582.13;6156169;28;20233;-57
2023/09/03 12:43:17;;;;;;;1.60;1.50;;;;;;;21.54;60.55;98572.66;6177693;28;20246;-56
2023/09/03 12:46:22;;;;;;;2.77;1.60;;;;;;;21.65;59.58;98579.56;6173817;28;20233;-55
2023/09/03 12:49:26;;;;;;;2.70;1.50;;;;;;;21.76;60.41;98563.94;6172016;28;20237;-54
2023/09/03 12:52:29;;;;;;;1.53;1.43;;;;;;;21.74;60.71;98536.31;6168765;28;20248;-56
2023/09/03 12:55:32;;;;;;;2.50;1.70;;;;;;;22.06;57.75;98568.91;6174785;28;20882;-55
2023/09/03 12:58:35;;;;;;;1.87;1.40;;;;;;;21.82;57.97;98569.03;6174004;28;20255;-57
2023/09/03 13:01:42;;;;;;;2.27;1.40;;;;;;;21.74;59.77;98563.44;6172255;28;20741;-56
2023/09/03 13:04:45;;;;;;;1.60;1.50;;;;;;;21.75;58.86;98562.34;6176270;28;20240;-57
2023/09/03 13:07:48;;;;;;;1.73;1.63;;;;;;;21.73;61.41;98561.84;6176144;28;20256;-60
2023/09/03 13:10:51;;;;;;;4.33;1.80;;;;;;;21.79;59.86;98560.66;6175376;28;20316;-59
2023/09/03 13:13:55;;;;;;;2.43;1.77;;;;;;;21.76;60.21;98553.09;6176077;28;20737;-58
2023/09/03 13:16:58;;;;;;;1.67;1.50;;;;;;;21.79;59.42;98555.25;6175058;28;20217;-59
2023/09/03 13:20:00;;;;;;;1.63;1.43;;;;;;;21.74;59.58;98553.41;6176099;28;20236;-59
2023/09/03 13:23:04;;;;;;;1.27;1.27;;;;;;;21.76;61.84;98545.78;6175301;28;20233;-58
2023/09/03 13:26:08;;;;;;;1.70;1.60;;;;;;;21.81;60.85;98544.88;6176767;28;20236;-58
2023/09/03 13:29:11;;;;;;;1.73;1.57;;;;;;;21.86;60.74;98539.38;6175614;28;20616;-59
2023/09/03 13:32:14;;;;;;;2.00;1.80;;;;;;;21.86;61.61;98536.69;6175665;28;20244;-59
2023/09/03 13:35:16;;;;;;;2.20;1.70;;;;;;;21.89;61.47;98533.38;6175056;28;20233;-58
2023/09/03 13:38:20;;;;;;;1.97;1.70;;;;;;;22.04;60.08;98535.84;6176355;28;20602;-59
2023/09/03 13:41:23;;;;;;;1.87;1.67;;;;;;;22.15;59.08;98529.19;6159247;28;20217;-57
2023/09/03 13:44:27;;;;;;;1.83;1.73;;;;;;;22.14;58.19;98526.78;6180071;28;20230;-57
2023/09/03 13:47:29;;;;;;;1.70;1.53;;;;;;;22.13;58.28;98520.53;6175880;28;20241;-59
2023/09/03 13:50:34;;;;;;;1.57;1.47;;;;;;;22.14;56.18;98513.22;6176178;28;20222;-59
2023/09/03 13:53:39;;;;;;;1.57;1.30;;;;;;;22.08;58.25;98523.31;6174787;28;20244;-59
2023/09/03 13:56:43;;;;;;;1.57;1.47;;;;;;;21.99;57.48;98516.94;6170942;28;20240;-58
2023/09/03 13:59:46;;;;;;;1.57;1.47;;;;;;;21.92;57.42;98518.41;6174277;28;20229;-55
2023/09/03 14:02:49;;;;;;;1.43;1.33;;;;;;;21.91;55.86;98512.19;6175766;28;21014;-58
2023/09/03 14:06:05;;;;;;;1.40;1.27;;;;;;;21.89;57.12;98520.63;6174688;28;20936;-56
2023/09/03 14:09:08;;;;;;;1.57;1.30;;;;;;;21.93;56.06;98511.91;6196529;28;20624;-58
2023/09/03 14:12:11;;;;;;;1.47;1.37;;;;;;;21.84;57.57;98512.56;6173400;28;20310;-58
2023/09/03 14:15:13;;;;;;;2.10;1.50;;;;;;;21.86;55.68;98504.94;6174788;28;20455;-58
2023/09/03 14:18:16;;;;;;;1.50;1.40;;;;;;;21.81;56.92;98512.34;6180649;28;20209;-54
2023/09/03 14:21:20;;;;;;;1.60;1.50;;;;;;;21.81;55.02;98524.00;6191686;28;20563;-56